Time;durP1;ratioP1;P1;durP2;ratioP2;P2;SDS_P1;SDS_P2;PMS_P1;PMS_P2;Temp;Humidity;BMP_temperature;BMP_pressure;BME280_temperature;BME280_humidity;BME280_pressure;Samples;Min_cycle;Max_cycle;Signal;HPM_P1;HPM_P2
2021/12/27 00:01:05;;;;;;;20.07;18.67;;;7.00;99.90;;;;;;5029952;28;20201;-76
2021/12/27 00:03:35;;;;;;;20.77;19.20;;;7.00;99.90;;;;;;5029074;28;20198;-76
2021/12/27 00:06:01;;;;;;;20.60;19.10;;;6.90;99.90;;;;;;5030915;28;20704;-77
2021/12/27 00:08:28;;;;;;;20.70;19.10;;;6.90;99.90;;;;;;5028781;28;20193;-77
2021/12/27 00:10:55;;;;;;;20.20;18.73;;;6.80;99.90;;;;;;5031222;28;20193;-76
2021/12/27 00:13:22;;;;;;;20.13;18.60;;;6.80;99.90;;;;;;5031022;28;20577;-76
2021/12/27 00:15:50;;;;;;;19.53;18.13;;;6.70;99.90;;;;;;5029538;28;20219;-77
2021/12/27 00:18:17;;;;;;;20.00;18.40;;;6.70;99.90;;;;;;5030580;28;20223;-75
2021/12/27 00:20:44;;;;;;;19.77;18.27;;;6.70;99.90;;;;;;5031546;28;20211;-77
2021/12/27 00:23:11;;;;;;;22.33;20.23;;;6.70;99.90;;;;;;5031886;28;20208;-76
2021/12/27 00:25:38;;;;;;;20.40;18.90;;;6.70;99.90;;;;;;5034973;28;20192;-76
2021/12/27 00:28:05;;;;;;;22.03;20.23;;;6.70;99.90;;;;;;5034258;28;20196;-77
2021/12/27 00:30:32;;;;;;;21.90;20.13;;;6.70;99.90;;;;;;5034464;28;20181;-76
2021/12/27 00:33:00;;;;;;;22.50;20.70;;;6.70;99.90;;;;;;5034125;28;20700;-76
2021/12/27 00:35:29;;;;;;;20.60;19.10;;;6.70;99.90;;;;;;5034294;28;20203;-76
2021/12/27 00:37:56;;;;;;;21.23;19.53;;;6.70;99.90;;;;;;5033948;28;20592;-76
2021/12/27 00:40:23;;;;;;;20.03;18.57;;;6.70;99.90;;;;;;5032793;28;20232;-76
2021/12/27 00:42:50;;;;;;;21.43;19.73;;;6.80;99.90;;;;;;5034306;28;20578;-77
2021/12/27 00:45:20;;;;;;;19.70;18.30;;;6.80;99.90;;;;;;5034518;28;20193;-76
2021/12/27 00:47:47;;;;;;;20.93;19.30;;;6.80;99.90;;;;;;5033593;28;20216;-77
2021/12/27 00:50:15;;;;;;;19.77;18.37;;;6.80;99.90;;;;;;5034215;28;20192;-76
2021/12/27 00:52:42;;;;;;;20.13;18.63;;;6.90;99.90;;;;;;5032535;28;20683;-76
2021/12/27 00:55:12;;;;;;;20.33;18.90;;;6.90;99.90;;;;;;5030143;28;20211;-76
2021/12/27 00:57:39;;;;;;;20.67;19.17;;;6.90;99.90;;;;;;5033581;28;20216;-76
2021/12/27 01:00:07;;;;;;;20.57;18.97;;;6.80;99.90;;;;;;5033628;28;20211;-76
2021/12/27 01:02:34;;;;;;;22.30;20.37;;;6.80;99.90;;;;;;5033879;28;20193;-77
2021/12/27 01:05:00;;;;;;;20.37;18.87;;;6.70;99.90;;;;;;5032488;28;20680;-76
2021/12/27 01:07:29;;;;;;;21.03;19.43;;;6.70;99.90;;;;;;5032309;28;20684;-76
2021/12/27 01:10:06;;;;;;;19.77;18.30;;;6.60;99.90;;;;;;5033675;28;20682;-76
2021/12/27 01:12:46;;;;;;;19.57;18.17;;;6.60;99.90;;;;;;5024787;28;20209;-76
2021/12/27 01:15:33;;;;;;;20.70;19.20;;;6.50;99.90;;;;;;5033569;28;20603;-77
2021/12/27 01:18:00;;;;;;;19.87;18.27;;;6.50;99.90;;;;;;5027975;28;20224;-76
2021/12/27 01:20:27;;;;;;;18.73;17.27;;;6.40;99.90;;;;;;5029004;28;20223;-76
2021/12/27 01:22:55;;;;;;;19.20;17.80;;;6.40;99.90;;;;;;5033409;28;20204;-77
2021/12/27 01:25:23;;;;;;;19.50;18.03;;;6.30;99.90;;;;;;5033392;28;20188;-75
2021/12/27 01:27:51;;;;;;;18.33;17.10;;;6.30;99.90;;;;;;5033074;28;20218;-76
2021/12/27 01:30:19;;;;;;;18.53;17.20;;;6.30;99.90;;;;;;5032002;28;20203;-76
2021/12/27 01:32:50;;;;;;;18.53;17.17;;;6.30;99.90;;;;;;5031883;28;20196;-76
2021/12/27 01:35:17;;;;;;;19.13;17.73;;;6.30;99.90;;;;;;5030958;28;20238;-76
2021/12/27 01:37:44;;;;;;;19.97;18.47;;;6.30;99.90;;;;;;5032751;28;20633;-76
2021/12/27 01:40:15;;;;;;;19.47;17.90;;;6.20;99.90;;;;;;5031739;28;20751;-76
2021/12/27 01:43:00;;;;;;;20.63;19.00;;;6.10;99.90;;;;;;5033007;28;20275;-76
2021/12/27 01:45:27;;;;;;;20.43;18.93;;;6.10;99.90;;;;;;5032941;28;20203;-76
2021/12/27 01:47:54;;;;;;;19.53;18.07;;;6.00;99.90;;;;;;5032652;28;20220;-76
2021/12/27 01:50:21;;;;;;;20.40;19.00;;;6.00;99.90;;;;;;5031544;28;20691;-76
2021/12/27 01:52:48;;;;;;;20.27;18.77;;;5.90;99.90;;;;;;5031739;28;20204;-77
2021/12/27 01:55:16;;;;;;;19.47;18.07;;;5.80;99.90;;;;;;5031408;28;20687;-76
2021/12/27 01:57:43;;;;;;;19.53;18.00;;;5.80;99.90;;;;;;5031203;28;20220;-76
2021/12/27 02:00:11;;;;;;;18.53;17.23;;;5.70;99.90;;;;;;5032813;28;20236;-76
2021/12/27 02:02:42;;;;;;;19.03;17.63;;;5.60;99.90;;;;;;5032649;28;20219;-76
2021/12/27 02:05:09;;;;;;;19.10;17.70;;;5.70;99.90;;;;;;5031435;28;20201;-76
2021/12/27 02:07:36;;;;;;;19.97;18.50;;;5.70;99.90;;;;;;5031086;28;20220;-76
2021/12/27 02:10:04;;;;;;;20.50;18.97;;;5.70;99.90;;;;;;5031320;28;20192;-76
2021/12/27 02:12:33;;;;;;;19.13;17.73;;;5.70;99.90;;;;;;5032665;28;20665;-76
2021/12/27 02:15:05;;;;;;;18.83;17.43;;;5.60;99.90;;;;;;5032426;28;20203;-76
2021/12/27 02:17:32;;;;;;;19.57;18.07;;;5.60;99.90;;;;;;5030897;28;20270;-76
2021/12/27 02:20:00;;;;;;;19.80;18.30;;;5.60;99.90;;;;;;5020309;28;20204;-76
2021/12/27 02:22:28;;;;;;;19.57;18.13;;;5.70;99.90;;;;;;5032123;28;20200;-76
2021/12/27 02:24:55;;;;;;;19.73;18.33;;;5.60;99.90;;;;;;5032424;28;20294;-77
2021/12/27 02:27:22;;;;;;;20.33;18.83;;;5.70;99.90;;;;;;5031637;28;20227;-76
2021/12/27 02:29:49;;;;;;;19.93;18.43;;;5.60;99.90;;;;;;5032009;28;20196;-77
2021/12/27 02:32:16;;;;;;;20.17;18.60;;;5.60;99.90;;;;;;5038481;28;20207;-76
2021/12/27 02:34:43;;;;;;;20.20;18.70;;;5.60;99.90;;;;;;5032100;28;20217;-76
2021/12/27 02:37:11;;;;;;;19.50;18.20;;;5.60;99.90;;;;;;5031777;28;20226;-76
2021/12/27 02:39:38;;;;;;;19.43;18.03;;;5.60;99.90;;;;;;5030736;28;20202;-76
2021/12/27 02:42:06;;;;;;;20.57;18.97;;;5.60;99.90;;;;;;5030662;28;20204;-76
2021/12/27 02:44:35;;;;;;;19.07;17.70;;;5.60;99.90;;;;;;5030509;28;20230;-76
2021/12/27 02:47:02;;;;;;;18.30;17.00;;;5.60;99.90;;;;;;5030223;28;20224;-76
2021/12/27 02:49:29;;;;;;;18.63;17.33;;;5.60;99.90;;;;;;5030770;28;20196;-77
2021/12/27 02:51:56;;;;;;;19.07;17.67;;;5.60;99.90;;;;;;5031849;28;20196;-76
2021/12/27 02:54:24;;;;;;;18.90;17.63;;;5.50;99.90;;;;;;5030471;28;20210;-76
2021/12/27 02:56:51;;;;;;;18.87;17.57;;;5.50;99.90;;;;;;5031360;28;20215;-76
2021/12/27 02:59:17;;;;;;;18.83;17.43;;;5.50;99.90;;;;;;5031692;28;20198;-76
2021/12/27 03:01:44;;;;;;;19.77;18.37;;;5.50;99.90;;;;;;5030449;28;20216;-76
2021/12/27 03:04:11;;;;;;;19.20;17.80;;;5.60;99.90;;;;;;5031781;28;20191;-77
2021/12/27 03:06:38;;;;;;;20.33;18.93;;;5.60;99.90;;;;;;5031503;28;20640;-77
2021/12/27 03:09:05;;;;;;;18.43;17.23;;;5.60;99.90;;;;;;5030137;28;20475;-76
2021/12/27 03:11:33;;;;;;;19.07;17.80;;;5.60;99.90;;;;;;5031494;28;20196;-76
2021/12/27 03:14:00;;;;;;;19.57;18.23;;;5.60;99.90;;;;;;5032304;28;20200;-76
2021/12/27 03:16:27;;;;;;;19.00;17.70;;;5.70;99.90;;;;;;5032181;28;20219;-76
2021/12/27 03:18:56;;;;;;;18.57;17.07;;;5.70;99.90;;;;;;5030846;28;20203;-76
2021/12/27 03:21:23;;;;;;;18.10;16.90;;;5.70;99.90;;;;;;5030923;28;20671;-76
2021/12/27 03:23:50;;;;;;;18.67;17.37;;;5.80;99.90;;;;;;5030913;28;20577;-76
2021/12/27 03:26:17;;;;;;;18.30;17.10;;;5.80;99.90;;;;;;5031044;28;20711;-76
2021/12/27 03:28:45;;;;;;;19.10;17.80;;;5.80;99.90;;;;;;5032255;28;20192;-76
2021/12/27 03:31:15;;;;;;;17.50;16.30;;;5.80;99.90;;;;;;5032313;28;20188;-78
2021/12/27 03:33:42;;;;;;;18.90;17.60;;;5.80;99.90;;;;;;5030993;28;20407;-76
2021/12/27 03:36:09;;;;;;;19.87;18.57;;;5.90;99.90;;;;;;5032067;28;20220;-76
2021/12/27 03:38:38;;;;;;;18.73;17.53;;;5.90;99.90;;;;;;5030803;28;20206;-76
2021/12/27 03:41:08;;;;;;;18.77;17.47;;;5.90;99.90;;;;;;5032125;28;20216;-76
2021/12/27 03:43:35;;;;;;;18.13;16.97;;;5.90;99.90;;;;;;5032445;28;20227;-78
2021/12/27 03:46:03;;;;;;;17.90;16.73;;;6.00;99.90;;;;;;5028501;28;20336;-77
2021/12/27 03:48:30;;;;;;;17.93;16.83;;;6.00;99.90;;;;;;5027074;28;20196;-76
2021/12/27 03:50:57;;;;;;;16.83;15.73;;;6.10;99.90;;;;;;5029113;28;20215;-76
2021/12/27 03:53:25;;;;;;;17.00;15.90;;;6.10;99.90;;;;;;5030595;28;20192;-76
2021/12/27 03:55:52;;;;;;;17.27;16.13;;;6.20;99.90;;;;;;5031361;28;20200;-78
2021/12/27 03:58:28;;;;;;;18.37;17.17;;;6.10;99.90;;;;;;5027946;28;20568;-78
2021/12/27 04:01:14;;;;;;;19.30;18.00;;;6.00;99.90;;;;;;5034956;28;20703;-78
2021/12/27 04:03:43;;;;;;;18.07;16.87;;;5.90;99.90;;;;;;5027563;28;20200;-79
2021/12/27 04:06:11;;;;;;;19.17;17.87;;;5.90;99.90;;;;;;5033505;28;20708;-78
2021/12/27 04:08:37;;;;;;;18.50;17.20;;;5.80;99.90;;;;;;5034325;28;20196;-78
2021/12/27 04:11:04;;;;;;;19.03;17.73;;;5.70;99.90;;;;;;5033670;28;20296;-79
2021/12/27 04:13:31;;;;;;;18.63;17.33;;;5.70;99.90;;;;;;5033071;28;20200;-77
2021/12/27 04:15:59;;;;;;;17.93;16.73;;;5.70;99.90;;;;;;5034610;28;20222;-79
2021/12/27 04:18:26;;;;;;;17.50;16.30;;;5.70;99.90;;;;;;5032264;28;20211;-77
2021/12/27 04:20:54;;;;;;;17.70;16.60;;;5.70;99.90;;;;;;5034839;28;20238;-76
2021/12/27 04:23:21;;;;;;;17.37;16.27;;;5.70;99.90;;;;;;5034681;28;20203;-76
2021/12/27 04:25:51;;;;;;;18.50;17.27;;;5.70;99.90;;;;;;5034258;28;20196;-78
2021/12/27 04:28:19;;;;;;;16.23;15.17;;;5.70;99.90;;;;;;5032923;28;20196;-78
2021/12/27 04:30:46;;;;;;;17.40;16.30;;;5.70;99.90;;;;;;5034477;28;20188;-78
2021/12/27 04:33:16;;;;;;;17.47;16.37;;;5.80;99.90;;;;;;5034894;28;20349;-77
2021/12/27 04:35:43;;;;;;;16.83;15.73;;;5.80;99.90;;;;;;5035560;28;20703;-78
2021/12/27 04:38:11;;;;;;;16.73;15.63;;;5.80;99.90;;;;;;5035332;28;20196;-77
2021/12/27 04:40:42;;;;;;;17.77;16.50;;;5.80;99.90;;;;;;5029897;28;20287;-76
2021/12/27 04:43:11;;;;;;;17.60;16.37;;;5.80;99.90;;;;;;5035685;28;20200;-77
2021/12/27 04:45:39;;;;;;;16.90;15.70;;;5.70;99.90;;;;;;5035049;28;20195;-78
2021/12/27 04:48:07;;;;;;;16.83;15.73;;;5.60;99.90;;;;;;5030900;28;20211;-78
2021/12/27 04:50:35;;;;;;;16.83;15.73;;;5.50;99.90;;;;;;5035433;28;20559;-78
2021/12/27 04:53:02;;;;;;;17.10;15.87;;;5.50;99.90;;;;;;5033863;28;20204;-78
2021/12/27 04:55:30;;;;;;;18.30;17.10;;;5.50;99.90;;;;;;5031565;28;20296;-78
2021/12/27 04:57:58;;;;;;;17.33;16.13;;;5.50;99.90;;;;;;5031182;28;20768;-78
2021/12/27 05:00:25;;;;;;;17.47;16.20;;;5.50;99.90;;;;;;5034823;28;20202;-78
2021/12/27 05:02:51;;;;;;;16.67;15.57;;;5.50;99.90;;;;;;5035145;28;20211;-78
2021/12/27 05:05:18;;;;;;;17.17;15.97;;;5.50;99.90;;;;;;5034948;28;20203;-78
2021/12/27 05:07:47;;;;;;;17.90;16.60;;;5.50;99.90;;;;;;5033268;28;20731;-78
2021/12/27 05:10:16;;;;;;;17.90;16.73;;;5.60;99.90;;;;;;5034805;28;20234;-78
2021/12/27 05:12:44;;;;;;;16.80;15.70;;;5.60;99.90;;;;;;5033671;28;20198;-78
2021/12/27 05:15:11;;;;;;;16.97;15.87;;;5.60;99.90;;;;;;5033460;28;20203;-78
2021/12/27 05:17:38;;;;;;;18.13;16.93;;;5.60;99.90;;;;;;5034496;28;20668;-78
2021/12/27 05:20:08;;;;;;;17.27;15.97;;;5.60;99.90;;;;;;5035150;28;20199;-78
2021/12/27 05:22:35;;;;;;;16.57;15.57;;;5.60;99.90;;;;;;5034785;28;20212;-78
2021/12/27 05:25:03;;;;;;;16.67;15.67;;;5.70;99.90;;;;;;5033326;28;20204;-79
2021/12/27 05:27:30;;;;;;;16.60;15.60;;;5.70;99.90;;;;;;5033167;28;20216;-78
2021/12/27 05:29:58;;;;;;;18.27;17.07;;;5.70;99.90;;;;;;5040219;28;20673;-78
2021/12/27 05:32:25;;;;;;;18.00;16.90;;;5.70;99.90;;;;;;5032977;28;20683;-78
2021/12/27 05:34:54;;;;;;;18.00;16.70;;;5.70;99.90;;;;;;5034539;28;20196;-79
2021/12/27 05:37:21;;;;;;;17.10;16.00;;;5.70;99.90;;;;;;5033418;28;20227;-78
2021/12/27 05:39:48;;;;;;;16.70;15.60;;;5.70;99.90;;;;;;5034220;28;20214;-78
2021/12/27 05:42:15;;;;;;;16.57;15.47;;;5.70;99.90;;;;;;5034143;28;20708;-78
2021/12/27 05:44:42;;;;;;;17.53;16.33;;;5.70;99.90;;;;;;5033200;28;20204;-78
2021/12/27 05:47:10;;;;;;;17.17;15.97;;;5.60;99.90;;;;;;5034213;28;20223;-80
2021/12/27 05:49:37;;;;;;;17.77;16.53;;;5.60;99.90;;;;;;5033031;28;20196;-81
2021/12/27 05:52:05;;;;;;;18.43;17.23;;;5.50;99.90;;;;;;5033613;28;20196;-81
2021/12/27 05:54:32;;;;;;;18.63;17.33;;;5.40;99.90;;;;;;5032124;28;20196;-82
2021/12/27 05:56:59;;;;;;;14.90;13.80;;;5.30;99.90;;;;;;5031567;28;20208;-81
2021/12/27 05:59:25;;;;;;;11.13;10.23;;;5.20;99.90;;;;;;5032841;28;20196;-80
2021/12/27 06:01:54;;;;;;;9.70;8.80;;;5.20;99.90;;;;;;5031570;28;20216;-80
2021/12/27 06:04:22;;;;;;;11.17;10.27;;;5.10;99.90;;;;;;5039897;28;20288;-80
2021/12/27 06:06:49;;;;;;;14.13;13.13;;;5.00;99.90;;;;;;5031080;28;20220;-80
2021/12/27 06:09:16;;;;;;;8.17;7.40;;;5.00;99.90;;;;;;5031422;28;20689;-81
2021/12/27 06:11:43;;;;;;;8.90;8.00;;;4.90;99.90;;;;;;5033590;28;20184;-80
2021/12/27 06:14:11;;;;;;;9.37;8.47;;;4.80;99.90;;;;;;5048046;28;20262;-80
2021/12/27 06:16:38;;;;;;;8.97;7.80;;;4.70;99.90;;;;;;5027120;28;20630;-79
2021/12/27 06:19:04;;;;;;;9.60;8.27;;;4.70;99.90;;;;;;5025570;28;20215;-80
2021/12/27 06:21:33;;;;;;;8.40;7.60;;;4.60;99.90;;;;;;5028240;28;20228;-80
2021/12/27 06:24:01;;;;;;;8.60;7.80;;;4.50;99.90;;;;;;5035125;28;20227;-79
2021/12/27 06:26:28;;;;;;;10.10;9.20;;;4.50;99.90;;;;;;5030543;28;20230;-78
2021/12/27 06:28:54;;;;;;;10.90;10.00;;;4.50;99.90;;;;;;5030937;28;20208;-79
2021/12/27 06:31:22;;;;;;;13.40;12.33;;;4.50;99.90;;;;;;5031581;28;20206;-79
2021/12/27 06:33:49;;;;;;;17.20;15.90;;;4.60;99.90;;;;;;5047632;28;20227;-79
2021/12/27 06:36:16;;;;;;;9.83;8.93;;;4.70;99.90;;;;;;5032190;28;20216;-81
2021/12/27 06:38:44;;;;;;;13.70;12.70;;;4.80;99.90;;;;;;5034030;28;20665;-80
2021/12/27 06:41:11;;;;;;;8.53;7.70;;;4.90;99.90;;;;;;5047401;28;20223;-79
2021/12/27 06:43:38;;;;;;;11.30;10.37;;;5.00;99.90;;;;;;5030756;28;20204;-79
2021/12/27 06:46:05;;;;;;;8.10;7.40;;;5.00;99.90;;;;;;5031521;28;20211;-78
2021/12/27 06:48:32;;;;;;;14.63;13.50;;;4.90;99.90;;;;;;5031527;28;20187;-77
2021/12/27 06:50:59;;;;;;;7.17;6.47;;;4.80;99.90;;;;;;5031855;28;20195;-77
2021/12/27 06:53:28;;;;;;;12.30;11.50;;;4.60;99.90;;;;;;5030486;28;20200;-78
2021/12/27 06:55:58;;;;;;;8.03;7.43;;;4.40;99.90;;;;;;5028695;28;20204;-78
2021/12/27 06:58:26;;;;;;;13.00;12.20;;;4.30;99.90;;;;;;5031044;28;20215;-78
2021/12/27 07:00:54;;;;;;;7.83;7.23;;;4.30;99.90;;;;;;5030327;28;20195;-77
2021/12/27 07:03:20;;;;;;;7.17;6.57;;;4.20;99.90;;;;;;5030213;28;20681;-78
2021/12/27 07:05:48;;;;;;;14.47;13.50;;;4.20;99.90;;;;;;5030156;28;20196;-80
2021/12/27 07:08:16;;;;;;;10.77;9.87;;;4.20;99.90;;;;;;5029987;28;20295;-80
2021/12/27 07:10:43;;;;;;;8.97;7.77;;;4.20;99.90;;;;;;5030682;28;20451;-78
2021/12/27 07:13:11;;;;;;;8.80;8.00;;;4.30;99.90;;;;;;5028867;28;20199;-81
2021/12/27 07:15:41;;;;;;;10.30;9.30;;;4.30;99.90;;;;;;5029956;28;20450;-80
2021/12/27 07:18:08;;;;;;;19.70;18.30;;;4.20;99.90;;;;;;5031049;28;20458;-81
2021/12/27 07:20:36;;;;;;;18.33;16.97;;;4.30;99.90;;;;;;5040939;28;20455;-81
2021/12/27 07:23:03;;;;;;;18.33;17.03;;;4.20;99.90;;;;;;5031058;28;20220;-81
2021/12/27 07:25:30;;;;;;;18.17;16.97;;;4.20;99.90;;;;;;5032810;28;20188;-80
2021/12/27 07:27:57;;;;;;;17.97;16.87;;;4.10;99.90;;;;;;5031698;28;20215;-77
2021/12/27 07:30:25;;;;;;;11.00;10.10;;;4.00;99.90;;;;;;5027541;28;20203;-79
2021/12/27 07:32:52;;;;;;;8.50;7.80;;;4.00;99.90;;;;;;5031458;28;20653;-82
2021/12/27 07:35:19;;;;;;;13.43;12.43;;;4.00;99.90;;;;;;5035306;28;20450;-79
2021/12/27 07:37:46;;;;;;;21.37;20.03;;;4.00;99.90;;;;;;5022269;28;20830;-78
2021/12/27 07:40:13;;;;;;;16.07;14.97;;;4.00;99.90;;;;;;5020531;28;20447;-80
2021/12/27 07:42:40;;;;;;;7.17;6.47;;;4.10;99.90;;;;;;5024666;28;20484;-79
2021/12/27 07:45:08;;;;;;;8.20;7.40;;;4.20;99.90;;;;;;5021286;28;20451;-79
2021/12/27 07:47:37;;;;;;;15.60;14.50;;;4.20;99.90;;;;;;5017309;28;20483;-80
2021/12/27 07:50:05;;;;;;;8.03;7.23;;;4.30;99.90;;;;;;5021435;28;20435;-79
2021/12/27 07:52:32;;;;;;;8.53;7.73;;;4.30;99.90;;;;;;5027715;28;20192;-80
2021/12/27 07:55:01;;;;;;;9.47;8.57;;;4.40;99.90;;;;;;5045134;28;20203;-80
2021/12/27 07:57:28;;;;;;;14.30;13.30;;;4.40;99.90;;;;;;5034970;28;20219;-79
2021/12/27 07:59:55;;;;;;;13.00;12.00;;;4.40;99.90;;;;;;5033745;28;20465;-80
2021/12/27 08:02:21;;;;;;;14.63;13.50;;;4.50;99.90;;;;;;5034949;28;20212;-78
2021/12/27 08:04:50;;;;;;;14.43;13.43;;;4.50;99.90;;;;;;5034978;28;20657;-77
2021/12/27 08:07:17;;;;;;;8.77;7.77;;;4.60;99.90;;;;;;5034097;28;20262;-78
2021/12/27 08:09:44;;;;;;;8.90;8.00;;;4.60;99.90;;;;;;5033070;28;20214;-77
2021/12/27 08:12:12;;;;;;;17.40;13.50;;;4.80;99.90;;;;;;5033534;28;20695;-80
2021/12/27 08:14:40;;;;;;;12.53;11.50;;;5.00;99.90;;;;;;5029218;28;20199;-80
2021/12/27 08:17:07;;;;;;;13.97;12.97;;;5.10;99.90;;;;;;5031731;28;20285;-79
2021/12/27 08:19:34;;;;;;;13.30;12.33;;;5.30;99.90;;;;;;5033600;28;20203;-79
2021/12/27 08:22:02;;;;;;;11.27;9.50;;;5.50;99.90;;;;;;5033084;28;20227;-79
2021/12/27 08:24:29;;;;;;;12.03;11.03;;;5.60;99.90;;;;;;5030769;28;20200;-79
2021/12/27 08:26:56;;;;;;;14.67;13.47;;;5.80;99.90;;;;;;5033298;28;20224;-78
2021/12/27 08:29:23;;;;;;;7.40;6.57;;;6.00;99.90;;;;;;5033592;28;20214;-79
2021/12/27 08:31:50;;;;;;;16.13;15.03;;;6.20;99.90;;;;;;5026766;28;20202;-79
2021/12/27 08:34:17;;;;;;;12.30;11.30;;;6.50;99.90;;;;;;5046305;28;20212;-79
2021/12/27 08:36:44;;;;;;;14.17;13.10;;;6.60;99.90;;;;;;5032969;28;20586;-83
2021/12/27 08:39:12;;;;;;;6.30;5.70;;;6.60;99.90;;;;;;5042207;28;20201;-81
2021/12/27 08:41:39;;;;;;;5.90;5.30;;;6.70;99.90;;;;;;5031653;28;20593;-80
2021/12/27 08:44:06;;;;;;;15.20;14.20;;;6.80;99.90;;;;;;5026869;28;20208;-78
2021/12/27 08:46:34;;;;;;;7.60;6.90;;;6.80;99.90;;;;;;5025923;28;20213;-77
2021/12/27 08:49:01;;;;;;;7.03;6.33;;;6.80;99.90;;;;;;5031193;28;20204;-77
2021/12/27 08:51:28;;;;;;;7.80;6.87;;;6.90;99.90;;;;;;5031581;28;20198;-77
2021/12/27 08:53:55;;;;;;;18.97;17.77;;;7.00;99.90;;;;;;5030811;28;20251;-76
2021/12/27 08:56:23;;;;;;;17.30;16.20;;;7.00;99.90;;;;;;5029513;28;20218;-79
2021/12/27 08:58:51;;;;;;;13.60;12.70;;;7.10;99.90;;;;;;5030175;28;20201;-79
2021/12/27 09:01:18;;;;;;;5.83;5.30;;;7.20;99.90;;;;;;5030644;28;20557;-79
2021/12/27 09:03:44;;;;;;;11.47;10.63;;;7.10;99.90;;;;;;5030072;28;20226;-78
2021/12/27 09:06:11;;;;;;;10.43;9.53;;;7.00;99.90;;;;;;5031181;28;20229;-77
2021/12/27 09:08:38;;;;;;;8.13;7.47;;;6.90;99.90;;;;;;5022184;28;20198;-77
2021/12/27 09:11:05;;;;;;;10.50;9.70;;;6.90;99.90;;;;;;5019844;28;20678;-77
2021/12/27 09:13:36;;;;;;;9.23;8.63;;;7.00;99.90;;;;;;5026242;28;20663;-77
2021/12/27 09:16:03;;;;;;;7.93;7.33;;;7.20;99.90;;;;;;5015235;28;20773;-77
2021/12/27 09:18:31;;;;;;;8.70;8.10;;;7.30;99.90;;;;;;5029275;28;20233;-77
2021/12/27 09:20:58;;;;;;;11.33;10.53;;;7.30;99.90;;;;;;5032769;28;20201;-79
2021/12/27 09:23:25;;;;;;;15.40;14.40;;;7.40;99.90;;;;;;5024585;28;20224;-77
2021/12/27 09:25:52;;;;;;;12.87;11.97;;;7.40;99.90;;;;;;5029371;28;20261;-77
2021/12/27 09:28:19;;;;;;;7.97;7.27;;;7.40;99.90;;;;;;5015030;28;20197;-77
2021/12/27 09:30:47;;;;;;;14.90;13.90;;;7.30;99.90;;;;;;5013015;28;20569;-77
2021/12/27 09:33:14;;;;;;;8.20;7.50;;;7.20;99.90;;;;;;5038199;28;20216;-77
2021/12/27 09:35:41;;;;;;;16.77;15.50;;;7.30;99.90;;;;;;5012781;28;20656;-77
2021/12/27 09:38:08;;;;;;;8.17;7.50;;;7.30;99.90;;;;;;5029159;28;20208;-77
2021/12/27 09:40:36;;;;;;;12.17;11.23;;;7.40;99.90;;;;;;5013712;28;20195;-77
2021/12/27 09:43:03;;;;;;;7.77;7.07;;;7.60;99.90;;;;;;5014922;28;20225;-78
2021/12/27 09:45:30;;;;;;;6.47;5.87;;;7.80;99.90;;;;;;5027021;28;20227;-76
2021/12/27 09:47:58;;;;;;;16.27;15.17;;;7.90;99.90;;;;;;5032631;28;20233;-78
2021/12/27 09:50:31;;;;;;;7.90;7.20;;;8.00;99.90;;;;;;5019865;28;20589;-77
2021/12/27 09:52:58;;;;;;;6.90;5.63;;;8.10;99.90;;;;;;5013833;28;20199;-78
2021/12/27 09:55:26;;;;;;;15.73;14.77;;;8.20;99.90;;;;;;5017412;28;20663;-76
2021/12/27 09:57:54;;;;;;;6.13;5.53;;;8.30;99.90;;;;;;5023889;28;20227;-80
2021/12/27 10:00:21;;;;;;;6.73;6.03;;;8.40;99.90;;;;;;5025469;28;20203;-80
2021/12/27 10:02:52;;;;;;;8.87;8.17;;;8.50;99.90;;;;;;5026469;28;20297;-80
2021/12/27 10:05:21;;;;;;;9.30;8.50;;;8.50;99.90;;;;;;5024776;28;20231;-80
2021/12/27 10:07:48;;;;;;;11.47;10.60;;;8.50;99.90;;;;;;5037354;28;20274;-80
2021/12/27 10:10:15;;;;;;;6.90;6.27;;;8.50;99.90;;;;;;5024418;28;20245;-80
2021/12/27 10:12:42;;;;;;;14.63;13.63;;;8.50;99.90;;;;;;5040225;28;20325;-79
2021/12/27 10:15:12;;;;;;;7.83;7.03;;;8.50;99.90;;;;;;5029612;28;20206;-79
2021/12/27 10:18:08;;;;;;;7.57;6.87;;;8.50;99.90;;;;;;5032275;28;20228;-79
2021/12/27 10:20:36;;;;;;;13.67;12.63;;;8.60;99.90;;;;;;5023735;28;20253;-78
2021/12/27 10:23:03;;;;;;;14.27;13.27;;;8.60;99.90;;;;;;5016980;28;20692;-80
2021/12/27 10:25:31;;;;;;;11.10;10.20;;;8.50;99.90;;;;;;5027097;28;20203;-79
2021/12/27 10:27:59;;;;;;;11.50;10.63;;;8.50;99.90;;;;;;5014277;28;20738;-79
2021/12/27 10:30:29;;;;;;;11.30;10.40;;;8.50;99.90;;;;;;5025983;28;20210;-78
2021/12/27 10:33:05;;;;;;;13.77;12.87;;;8.60;99.90;;;;;;5031268;28;20686;-78
2021/12/27 10:35:38;;;;;;;12.07;11.13;;;8.70;99.90;;;;;;5030019;28;20265;-78
2021/12/27 10:38:17;;;;;;;6.80;6.10;;;8.80;99.90;;;;;;5030476;28;20210;-77
2021/12/27 10:40:56;;;;;;;7.73;7.10;;;8.80;99.90;;;;;;5027429;28;20202;-76
2021/12/27 10:43:45;;;;;;;6.30;5.37;;;8.90;99.90;;;;;;5028983;28;20222;-76
2021/12/27 10:46:16;;;;;;;10.93;9.93;;;8.90;99.90;;;;;;5025760;28;20632;-76
2021/12/27 10:48:45;;;;;;;5.63;5.00;;;8.90;99.90;;;;;;5029517;28;20444;-76
2021/12/27 10:51:17;;;;;;;12.37;11.43;;;8.90;99.90;;;;;;5028923;28;20563;-77
2021/12/27 10:53:47;;;;;;;6.27;4.93;;;8.90;99.90;;;;;;5030280;28;20483;-76
2021/12/27 10:56:14;;;;;;;8.73;8.03;;;8.90;99.90;;;;;;5030688;28;20560;-79
2021/12/27 10:58:47;;;;;;;8.33;7.73;;;8.90;99.90;;;;;;5021137;28;20199;-80
2021/12/27 11:01:18;;;;;;;7.53;6.83;;;9.00;99.90;;;;;;5029032;28;20192;-81
2021/12/27 11:03:46;;;;;;;7.10;6.47;;;9.00;99.90;;;;;;5028909;28;20285;-77
2021/12/27 11:06:19;;;;;;;9.97;8.97;;;9.00;99.90;;;;;;5028808;28;20295;-76
2021/12/27 11:08:46;;;;;;;7.00;6.30;;;8.90;99.90;;;;;;5028433;28;20199;-77
2021/12/27 11:11:16;;;;;;;7.67;5.50;;;8.80;99.90;;;;;;5029623;28;20207;-76
2021/12/27 11:13:45;;;;;;;13.67;12.77;;;8.80;99.90;;;;;;5021174;28;20206;-77
2021/12/27 11:16:11;;;;;;;13.20;12.40;;;8.70;99.90;;;;;;5028058;28;20219;-79
2021/12/27 11:18:38;;;;;;;13.57;12.67;;;8.70;99.90;;;;;;5030944;28;20203;-78
2021/12/27 11:21:11;;;;;;;13.90;12.90;;;8.80;99.90;;;;;;5030063;28;20191;-79
2021/12/27 11:23:41;;;;;;;13.73;12.83;;;8.80;99.90;;;;;;5031966;28;20219;-78
2021/12/27 11:26:14;;;;;;;8.80;8.10;;;8.90;99.90;;;;;;5024921;28;20243;-77
2021/12/27 11:28:42;;;;;;;6.90;6.30;;;9.00;99.90;;;;;;5030924;28;20195;-77
2021/12/27 11:31:15;;;;;;;9.10;8.40;;;9.20;99.90;;;;;;5031072;28;20202;-77
2021/12/27 11:33:57;;;;;;;14.93;13.93;;;9.30;99.90;;;;;;5029938;28;20200;-77
2021/12/27 11:36:25;;;;;;;11.77;10.77;;;9.50;99.90;;;;;;5029397;28;20219;-78
2021/12/27 11:38:53;;;;;;;9.93;9.13;;;9.60;99.90;;;;;;5031069;28;20677;-77
2021/12/27 11:41:35;;;;;;;15.60;14.53;;;9.60;99.90;;;;;;5030933;28;20191;-78
2021/12/27 11:44:04;;;;;;;13.77;12.87;;;9.70;99.90;;;;;;5030938;28;20222;-79
2021/12/27 11:46:52;;;;;;;13.70;12.80;;;9.70;99.90;;;;;;5040769;28;20599;-80
2021/12/27 11:49:35;;;;;;;13.47;12.60;;;9.70;99.90;;;;;;5022816;28;20326;-77
2021/12/27 11:52:17;;;;;;;14.10;13.20;;;9.60;99.90;;;;;;5029720;28;20203;-77
2021/12/27 11:54:52;;;;;;;13.30;12.50;;;9.70;99.90;;;;;;5042121;28;20197;-78
2021/12/27 11:57:48;;;;;;;13.93;13.13;;;9.70;99.90;;;;;;5031919;28;20763;-77
2021/12/27 12:00:38;;;;;;;14.40;13.60;;;9.70;99.90;;;;;;5026183;28;20192;-77
2021/12/27 12:03:18;;;;;;;15.03;14.13;;;9.80;99.90;;;;;;5028970;28;20220;-77
2021/12/27 12:05:47;;;;;;;13.40;12.60;;;9.80;99.90;;;;;;5028883;28;20244;-77
2021/12/27 12:08:15;;;;;;;13.27;12.47;;;9.80;99.90;;;;;;5031860;28;20180;-78
2021/12/27 12:10:52;;;;;;;13.57;12.67;;;9.80;99.90;;;;;;5040807;28;20196;-81
2021/12/27 12:13:23;;;;;;;13.10;12.30;;;9.90;99.90;;;;;;5032826;28;20617;-80
2021/12/27 12:16:09;;;;;;;13.23;12.33;;;9.90;99.90;;;;;;5032455;28;20211;-80
2021/12/27 12:18:39;;;;;;;13.00;12.20;;;10.00;99.90;;;;;;5027678;28;20207;-76
2021/12/27 12:21:06;;;;;;;12.73;11.93;;;10.00;99.90;;;;;;5034511;28;20221;-77
2021/12/27 12:23:37;;;;;;;13.53;12.73;;;10.00;99.90;;;;;;5032422;28;20279;-77
2021/12/27 12:26:06;;;;;;;14.57;13.67;;;10.10;99.90;;;;;;5034897;28;20720;-79
2021/12/27 12:28:33;;;;;;;12.90;12.20;;;10.10;99.90;;;;;;5029243;28;20216;-77
2021/12/27 12:31:00;;;;;;;13.40;12.60;;;10.20;99.90;;;;;;5033036;28;20442;-78
2021/12/27 12:33:30;;;;;;;13.47;12.67;;;10.20;99.90;;;;;;5034957;28;20193;-78
2021/12/27 12:35:59;;;;;;;13.53;12.73;;;10.20;99.90;;;;;;5034547;28;20203;-77
2021/12/27 12:38:28;;;;;;;13.10;12.40;;;10.30;99.90;;;;;;5030176;28;20223;-79
2021/12/27 12:41:02;;;;;;;12.83;12.13;;;10.30;99.90;;;;;;5035252;28;20613;-78
2021/12/27 12:43:36;;;;;;;12.87;12.17;;;10.40;99.90;;;;;;5025422;28;20208;-78
2021/12/27 12:46:21;;;;;;;13.80;12.90;;;10.40;99.90;;;;;;5033729;28;20219;-78
2021/12/27 12:49:04;;;;;;;14.10;13.20;;;10.50;99.90;;;;;;5027031;28;20204;-78